createdAt,value
2022-12-18T00:00:01.803Z,1020.6538609388672
2022-12-18T00:15:02.516Z,1020.6669628295815
2022-12-18T00:30:02.143Z,1020.6597222049353
2022-12-18T00:45:01.756Z,1020.7635888340848
2022-12-18T01:00:02.367Z,1020.5714491820711
2022-12-18T01:15:02.438Z,1020.6188016887678
2022-12-18T01:30:02.069Z,1020.4882875011245
2022-12-18T01:45:01.719Z,1020.6707173602854
2022-12-18T02:00:02.332Z,1020.7328213868359
2022-12-18T02:15:01.965Z,1020.7701904087112
2022-12-18T02:30:01.603Z,1020.7404142624767
2022-12-18T02:45:02.227Z,1020.581156714231
2022-12-18T03:00:01.858Z,1020.5268783721997
2022-12-18T03:15:01.566Z,1020.4099949945266
2022-12-18T03:30:02.223Z,1020.6084267155821
2022-12-18T03:45:01.975Z,1020.605277095401
2022-12-18T04:00:01.670Z,1020.5026766517028
2022-12-18T04:15:01.488Z,1020.5573488226225
2022-12-18T04:30:02.134Z,1020.6116981322397
2022-12-18T04:45:01.769Z,1020.5978857723222
2022-12-18T05:00:01.382Z,1020.4913520916381
2022-12-18T05:15:02.008Z,1020.4265694078126
2022-12-18T05:30:01.748Z,1020.3992609930968
2022-12-18T05:45:01.367Z,1020.5054191707017
2022-12-18T06:00:02.022Z,1020.6394718705052
2022-12-18T06:15:01.631Z,1020.7287416713762
2022-12-18T06:30:01.301Z,1020.986173385266
2022-12-18T06:45:01.907Z,1021.1716600822807
2022-12-18T07:00:01.734Z,1021.2069980877403
2022-12-18T07:15:01.667Z,1020.9986023691273
2022-12-18T07:30:01.406Z,1021.0105807821694
2022-12-18T07:45:02.070Z,1020.9319541328384
2022-12-18T08:00:01.666Z,1020.756320348089
2022-12-18T08:15:01.649Z,1020.6833504194983
2022-12-18T08:30:02.289Z,1020.463441074831
2022-12-18T08:45:01.899Z,1020.822045881829
2022-12-18T09:00:01.488Z,1020.4545218340785
2022-12-18T09:15:02.105Z,1020.4642675197423
2022-12-18T09:30:01.735Z,1020.6775506508873
2022-12-18T09:45:01.465Z,1020.6450411318241
2022-12-18T10:00:02.092Z,1020.6275999628901
2022-12-18T10:15:01.754Z,1020.1036898029971
2022-12-18T10:30:01.392Z,1019.9476035257878
2022-12-18T10:45:02.003Z,1019.8860632343582
2022-12-18T11:00:01.611Z,1019.5325077894378
2022-12-18T11:15:01.500Z,1019.4205313042589
2022-12-18T11:30:02.250Z,1019.1776085063799
2022-12-18T11:45:01.875Z,1019.0548942225926
2022-12-18T12:00:02.495Z,1018.6571433619009
2022-12-18T12:15:02.116Z,1018.702962179253
2022-12-18T12:30:01.776Z,1018.649545376899
2022-12-18T12:45:02.405Z,1018.5190529231788
2022-12-18T13:00:02.315Z,1018.0718432242461
2022-12-18T13:15:02.005Z,1017.8569969967907
2022-12-18T13:30:01.625Z,1017.6057499578159
2022-12-18T13:45:01.523Z,1017.4773451751935
2022-12-18T14:00:02.124Z,1017.3164916045406
2022-12-18T14:15:01.772Z,1017.3572641179791
2022-12-18T14:30:01.427Z,1017.0026494942434
2022-12-18T14:45:14.170Z,1016.9200015203518
2022-12-18T15:00:02.178Z,1016.7603429687072
2022-12-18T15:15:01.937Z,1016.6074124725907
2022-12-18T15:30:01.562Z,1016.1537682530131
2022-12-18T15:45:02.192Z,1016.0959086007434
2022-12-18T16:00:01.882Z,1015.8643261724823
2022-12-18T16:15:01.551Z,1015.664491558867
2022-12-18T16:30:02.214Z,1015.2454078693901
2022-12-18T16:45:01.888Z,1015.1287663523227
2022-12-18T17:00:05.600Z,1015.1214603362786
2022-12-18T17:15:01.619Z,1014.9373144484186
2022-12-18T17:30:01.265Z,1014.7090970240833
2022-12-18T17:45:01.928Z,1014.6944146712798
2022-12-18T18:00:01.526Z,1014.6478866900471
2022-12-18T18:15:02.159Z,1014.5151158786394
2022-12-18T18:30:01.954Z,1014.3440294748417
2022-12-18T18:45:01.644Z,1014.4031099995534
2022-12-18T19:00:01.288Z,1014.4520776300928
2022-12-18T19:15:02.140Z,1014.4500865309726
2022-12-18T19:30:02.226Z,1014.3348966166199
2022-12-18T19:45:01.968Z,1014.5946000078015
2022-12-18T20:00:01.596Z,1014.5976832219121
2022-12-18T20:15:02.276Z,1014.4353136641065
2022-12-18T20:30:01.960Z,1014.5411685554697
2022-12-18T20:45:01.595Z,1014.3737509539075
2022-12-18T21:00:02.291Z,1014.3385372442987
2022-12-18T21:15:01.926Z,1014.240923222977
2022-12-18T21:30:01.557Z,1014.1918028425188
2022-12-18T21:45:02.234Z,1014.2686404710776
2022-12-18T22:00:01.850Z,1014.1725595200911
2022-12-18T22:15:01.576Z,1013.9335102259688
2022-12-18T22:30:02.235Z,1013.8403017044319
2022-12-18T22:45:01.899Z,1013.7555666578212
2022-12-18T23:00:01.513Z,1013.7010088567345
2022-12-18T23:15:02.356Z,1013.6984955699058
2022-12-18T23:30:02.075Z,1013.426894794207
2022-12-18T23:45:09.368Z,1013.1508452151734
